Time,TemperatureF,DewpointF,PressureIn,WindDirection,WindDirectionDegrees,WindSpeedMPH,WindSpeedGustMPH,Humidity,HourlyPrecipIn,Conditions,Clouds,dailyrainin,SoftwareType,DateUTC
2013-04-05 00:00:00,41.5,39.6,29.98,South,184,4.0,8.0,93,0.00,,,0.17,WeatherCatV1.15B25,2013-04-05 04:00:00,
2013-04-05 00:01:00,41.5,39.6,29.98,SSE,160,6.0,8.0,93,0.00,,,0.00,WeatherCatV1.15B25,2013-04-05 04:01:00,
2013-04-05 00:04:00,41.3,39.4,29.98,SSE,147,3.0,6.0,93,0.00,,,0.00,WeatherCatV1.15B25,2013-04-05 04:04:00,
2013-04-05 00:09:00,41.3,39.4,29.98,SE,136,5.0,8.0,93,0.00,,,0.00,WeatherCatV1.15B25,2013-04-05 04:09:00,
2013-04-05 00:14:00,41.3,39.2,29.98,SE,134,7.0,8.0,92,0.00,,,0.00,WeatherCatV1.15B25,2013-04-05 04:14:00,
2013-04-05 00:19:00,41.3,39.4,29.99,SE,138,8.0,10.0,93,0.00,,,0.00,WeatherCatV1.15B25,2013-04-05 04:19:00,
2013-04-05 00:24:00,41.3,39.4,29.99,SE,124,8.0,10.0,93,0.00,,,0.00,WeatherCatV1.15B25,2013-04-05 04:24:00,
2013-04-05 00:29:00,41.3,39.2,29.99,SE,137,6.0,8.0,92,0.00,,,0.00,WeatherCatV1.15B25,2013-04-05 04:29:00,
2013-04-05 00:34:00,41.3,39.4,29.99,ESE,103,2.0,10.0,93,0.00,,,0.00,WeatherCatV1.15B25,2013-04-05 04:34:00,
2013-04-05 00:39:00,41.3,39.2,29.99,ESE,116,7.0,7.0,92,0.00,,,0.00,WeatherCatV1.15B25,2013-04-05 04:39:00,
2013-04-05 00:44:00,41.3,39.2,29.99,SE,128,7.0,8.0,92,0.00,,,0.00,WeatherCatV1.15B25,2013-04-05 04:44:00,
2013-04-05 00:49:00,41.3,39.2,29.99,SE,127,7.0,10.0,92,0.00,,,0.00,WeatherCatV1.15B25,2013-04-05 04:49:00,
2013-04-05 00:54:00,41.3,39.2,29.99,ESE,106,6.0,6.0,92,0.00,,,0.00,WeatherCatV1.15B25,2013-04-05 04:54:00,
2013-04-05 00:59:00,41.2,39.1,29.99,ESE,113,3.0,7.0,92,0.00,,,0.00,WeatherCatV1.15B25,2013-04-05 04:59:00,
2013-04-05 01:04:00,41.2,39.1,29.99,ESE,114,3.0,7.0,92,0.00,,,0.00,WeatherCatV1.15B25,2013-04-05 05:04:00,
2013-04-05 01:09:00,41.1,39.0,29.99,SE,141,2.0,13.0,92,0.00,,,0.00,WeatherCatV1.15B25,2013-04-05 05:09:00,
2013-04-05 01:14:00,41.2,39.1,29.99,SE,131,10.0,12.0,92,0.00,,,0.00,WeatherCatV1.15B25,2013-04-05 05:14:00,
2013-04-05 01:19:00,41.1,39.0,29.99,ESE,104,4.0,6.0,92,0.00,,,0.00,WeatherCatV1.15B25,2013-04-05 05:19:00,
2013-04-05 01:24:00,41.1,39.0,29.99,SE,124,7.0,12.0,92,0.00,,,0.00,WeatherCatV1.15B25,2013-04-05 05:24:00,
2013-04-05 01:29:00,40.9,38.8,29.99,SE,124,0.0,3.0,92,0.00,,,0.00,WeatherCatV1.15B25,2013-04-05 05:29:00,
2013-04-05 01:34:00,40.9,38.8,29.99,ESE,104,3.0,7.0,92,0.00,,,0.00,WeatherCatV1.15B25,2013-04-05 05:34:00,
2013-04-05 01:39:00,40.8,38.7,29.99,East,92,3.0,6.0,92,0.00,,,0.00,WeatherCatV1.15B25,2013-04-05 05:39:00,
2013-04-05 01:44:00,40.8,38.7,29.99,East,80,3.0,6.0,92,0.00,,,0.00,WeatherCatV1.15B25,2013-04-05 05:44:00,
2013-04-05 01:49:00,40.8,38.7,29.99,ENE,75,3.0,8.0,92,0.00,,,0.00,WeatherCatV1.15B25,2013-04-05 05:49:00,
2013-04-05 01:54:00,40.8,38.7,29.99,NE,34,2.0,7.0,92,0.00,,,0.00,WeatherCatV1.15B25,2013-04-05 05:54:00,
2013-04-05 01:59:00,40.8,38.7,29.99,NE,49,5.0,7.0,92,0.00,,,0.00,WeatherCatV1.15B25,2013-04-05 05:59:00,
2013-04-05 02:04:00,40.6,38.5,29.98,ENE,75,2.0,3.0,92,0.00,,,0.00,WeatherCatV1.15B25,2013-04-05 06:04:00,
2013-04-05 02:09:00,40.8,38.7,29.98,NE,41,3.0,6.0,92,0.00,,,0.00,WeatherCatV1.15B25,2013-04-05 06:09:00,
2013-04-05 02:14:00,40.9,38.8,29.98,NE,42,0.0,0.0,92,0.00,,,0.00,WeatherCatV1.15B25,2013-04-05 06:14:00,
2013-04-05 02:19:00,41.1,39.0,29.98,East,86,0.0,3.0,92,0.00,,,0.00,WeatherCatV1.15B25,2013-04-05 06:19:00,
2013-04-05 02:24:00,40.9,38.8,29.98,SE,127,3.0,7.0,92,0.00,,,0.00,WeatherCatV1.15B25,2013-04-05 06:24:00,
2013-04-05 02:29:00,40.9,38.8,29.98,East,95,3.0,6.0,92,0.00,,,0.00,WeatherCatV1.15B25,2013-04-05 06:29:00,
2013-04-05 02:34:00,40.8,38.7,29.98,ENE,64,2.0,3.0,92,0.00,,,0.00,WeatherCatV1.15B25,2013-04-05 06:34:00,
2013-04-05 02:39:00,40.8,38.7,29.98,ENE,65,3.0,5.0,92,0.00,,,0.00,WeatherCatV1.15B25,2013-04-05 06:39:00,
2013-04-05 02:44:00,40.8,38.4,29.97,ENE,62,1.0,3.0,91,0.00,,,0.00,WeatherCatV1.15B25,2013-04-05 06:44:00,
2013-04-05 02:49:00,40.8,38.4,29.97,ENE,62,2.0,2.0,91,0.00,,,0.00,WeatherCatV1.15B25,2013-04-05 06:49:00,
2013-04-05 02:54:00,40.8,38.7,29.97,ENE,64,4.0,5.0,92,0.00,,,0.00,WeatherCatV1.15B25,2013-04-05 06:54:00,
2013-04-05 02:59:00,40.8,38.4,29.96,ENE,64,3.0,5.0,91,0.00,,,0.00,WeatherCatV1.15B25,2013-04-05 06:59:00,
2013-04-05 03:04:00,40.8,38.4,29.96,ENE,73,2.0,4.0,91,0.00,,,0.00,WeatherCatV1.15B25,2013-04-05 07:04:00,
2013-04-05 03:09:00,40.8,38.7,29.96,NE,47,0.0,0.0,92,0.00,,,0.00,WeatherCatV1.15B25,2013-04-05 07:09:00,
2013-04-05 03:14:00,40.9,38.8,29.95,NE,37,6.0,6.0,92,0.00,,,0.00,WeatherCatV1.15B25,2013-04-05 07:14:00,
2013-04-05 03:19:00,41.1,39.0,29.95,NE,49,3.0,7.0,92,0.00,,,0.00,WeatherCatV1.15B25,2013-04-05 07:19:00,
2013-04-05 03:24:00,41.1,38.7,29.95,North,4,0.0,3.0,91,0.00,,,0.00,WeatherCatV1.15B25,2013-04-05 07:24:00,
2013-04-05 03:29:00,40.9,38.5,29.95,North,4,3.0,5.0,91,0.00,,,0.00,WeatherCatV1.15B25,2013-04-05 07:29:00,
2013-04-05 03:34:00,40.8,38.4,29.95,North,11,0.0,3.0,91,0.00,,,0.00,WeatherCatV1.15B25,2013-04-05 07:34:00,
2013-04-05 03:39:00,40.8,38.7,29.95,North,11,0.0,3.0,92,0.00,,,0.00,WeatherCatV1.15B25,2013-04-05 07:39:00,
2013-04-05 03:44:00,40.8,38.7,29.95,North,10,0.0,0.0,92,0.00,,,0.00,WeatherCatV1.15B25,2013-04-05 07:44:00,
2013-04-05 03:49:00,40.8,38.7,29.95,North,10,0.0,0.0,92,0.00,,,0.00,WeatherCatV1.15B25,2013-04-05 07:49:00,
2013-04-05 03:54:00,40.8,38.7,29.95,North,10,0.0,0.0,92,0.00,,,0.00,WeatherCatV1.15B25,2013-04-05 07:54:00,
2013-04-05 03:59:00,40.8,38.7,29.95,North,10,0.0,0.0,92,0.00,,,0.00,WeatherCatV1.15B25,2013-04-05 07:59:00,
2013-04-05 04:04:00,40.8,38.7,29.94,North,10,0.0,0.0,92,0.00,,,0.00,WeatherCatV1.15B25,2013-04-05 08:04:00,
2013-04-05 04:09:00,40.8,38.7,29.94,North,10,0.0,0.0,92,0.00,,,0.00,WeatherCatV1.15B25,2013-04-05 08:09:00,
2013-04-05 04:14:00,40.8,38.9,29.94,North,10,0.0,0.0,93,0.00,,,0.00,WeatherCatV1.15B25,2013-04-05 08:14:00,
2013-04-05 04:19:00,40.8,38.9,29.94,North,4,1.0,3.0,93,0.00,,,0.00,WeatherCatV1.15B25,2013-04-05 08:19:00,
2013-04-05 04:24:00,40.8,38.7,29.94,North,0,3.0,4.0,92,0.00,,,0.00,WeatherCatV1.15B25,2013-04-05 08:24:00,
2013-04-05 04:29:00,40.9,39.0,29.94,North,0,0.0,0.0,93,0.00,,,0.00,WeatherCatV1.15B25,2013-04-05 08:29:00,
2013-04-05 04:34:00,40.9,39.0,29.93,North,0,0.0,0.0,93,0.00,,,0.00,WeatherCatV1.15B25,2013-04-05 08:34:00,
2013-04-05 04:39:00,40.8,38.9,29.93,North,0,0.0,0.0,93,0.00,,,0.00,WeatherCatV1.15B25,2013-04-05 08:39:00,
2013-04-05 04:44:00,40.6,38.7,29.94,North,0,0.0,0.0,93,0.00,,,0.00,WeatherCatV1.15B25,2013-04-05 08:44:00,
2013-04-05 04:49:00,40.6,38.7,29.94,North,0,0.0,0.0,93,0.00,,,0.00,WeatherCatV1.15B25,2013-04-05 08:49:00,
2013-04-05 04:54:00,40.6,38.7,29.94,North,0,0.0,0.0,93,0.00,,,0.00,WeatherCatV1.15B25,2013-04-05 08:54:00,
2013-04-05 04:59:00,40.5,38.6,29.93,North,0,0.0,0.0,93,0.00,,,0.00,WeatherCatV1.15B25,2013-04-05 08:59:00,
2013-04-05 05:04:00,40.5,38.6,29.93,North,0,0.0,0.0,93,0.00,,,0.00,WeatherCatV1.15B25,2013-04-05 09:04:00,
2013-04-05 05:09:00,40.5,38.6,29.93,North,0,0.0,0.0,93,0.00,,,0.00,WeatherCatV1.15B25,2013-04-05 09:09:00,
2013-04-05 05:14:00,40.5,38.9,29.92,North,0,0.0,0.0,94,0.00,,,0.00,WeatherCatV1.15B25,2013-04-05 09:14:00,
2013-04-05 05:19:00,40.6,39.0,29.92,North,0,0.0,0.0,94,0.00,,,0.00,WeatherCatV1.15B25,2013-04-05 09:19:00,
2013-04-05 05:24:00,40.6,39.0,29.92,North,0,0.0,0.0,94,0.00,,,0.00,WeatherCatV1.15B25,2013-04-05 09:24:00,
2013-04-05 05:29:00,40.8,39.2,29.92,North,0,0.0,0.0,94,0.00,,,0.00,WeatherCatV1.15B25,2013-04-05 09:29:00,
2013-04-05 05:34:00,40.9,39.3,29.92,North,0,0.0,0.0,94,0.00,,,0.00,WeatherCatV1.15B25,2013-04-05 09:34:00,
2013-04-05 05:39:00,41.1,39.5,29.92,North,0,0.0,0.0,94,0.00,,,0.00,WeatherCatV1.15B25,2013-04-05 09:39:00,
2013-04-05 05:44:00,41.1,39.5,29.94,North,0,0.0,0.0,94,0.00,,,0.00,WeatherCatV1.15B25,2013-04-05 09:44:00,
2013-04-05 05:49:00,41.2,39.6,29.94,North,0,0.0,0.0,94,0.00,,,0.00,WeatherCatV1.15B25,2013-04-05 09:49:00,
2013-04-05 05:54:00,41.2,39.6,29.94,North,0,0.0,0.0,94,0.00,,,0.00,WeatherCatV1.15B25,2013-04-05 09:54:00,
2013-04-05 05:59:00,41.3,39.7,29.94,North,0,0.0,0.0,94,0.00,,,0.00,WeatherCatV1.15B25,2013-04-05 09:59:00,
2013-04-05 06:04:00,41.5,39.9,29.94,North,0,0.0,0.0,94,0.00,,,0.00,WeatherCatV1.15B25,2013-04-05 10:04:00,
2013-04-05 06:09:00,41.6,40.3,29.94,North,0,0.0,0.0,95,0.00,,,0.00,WeatherCatV1.15B25,2013-04-05 10:09:00,
2013-04-05 06:14:00,41.8,40.5,29.94,North,0,0.0,0.0,95,0.00,,,0.00,WeatherCatV1.15B25,2013-04-05 10:14:00,
2013-04-05 06:19:00,41.9,40.3,29.94,North,0,0.0,0.0,94,0.00,,,0.00,WeatherCatV1.15B25,2013-04-05 10:19:00,
2013-04-05 06:24:00,41.9,40.3,29.94,North,0,0.0,0.0,94,0.00,,,0.00,WeatherCatV1.15B25,2013-04-05 10:24:00,
2013-04-05 06:29:00,41.9,40.3,29.95,North,0,0.0,0.0,94,0.00,,,0.00,WeatherCatV1.15B25,2013-04-05 10:29:00,
2013-04-05 06:34:00,42.1,40.5,29.95,North,0,0.0,0.0,94,0.00,,,0.00,WeatherCatV1.15B25,2013-04-05 10:34:00,
2013-04-05 06:39:00,42.1,40.5,29.95,North,0,0.0,0.0,94,0.00,,,0.00,WeatherCatV1.15B25,2013-04-05 10:39:00,
2013-04-05 06:44:00,42.1,40.5,29.95,North,0,0.0,0.0,94,0.00,,,0.00,WeatherCatV1.15B25,2013-04-05 10:44:00,
2013-04-05 06:49:00,42.2,40.6,29.95,North,0,0.0,0.0,94,0.00,,,0.00,WeatherCatV1.15B25,2013-04-05 10:49:00,
2013-04-05 06:54:00,42.3,40.7,29.95,ESE,119,0.0,2.0,94,0.00,,,0.00,WeatherCatV1.15B25,2013-04-05 10:54:00,
2013-04-05 06:59:00,42.5,40.9,29.95,ESE,119,0.0,0.0,94,0.00,,,0.00,WeatherCatV1.15B25,2013-04-05 10:59:00,
2013-04-05 07:04:00,42.5,40.9,29.95,ESE,119,0.0,0.0,94,0.00,,,0.00,WeatherCatV1.15B25,2013-04-05 11:04:00,
2013-04-05 07:09:00,42.5,40.9,29.95,ESE,119,0.0,0.0,94,0.00,,,0.00,WeatherCatV1.15B25,2013-04-05 11:09:00,
2013-04-05 07:14:00,42.3,40.7,29.95,ESE,119,0.0,0.0,94,0.00,,,0.00,WeatherCatV1.15B25,2013-04-05 11:14:00,
2013-04-05 07:19:00,42.3,40.7,29.95,ESE,119,0.0,0.0,94,0.00,,,0.00,WeatherCatV1.15B25,2013-04-05 11:19:00,
2013-04-05 07:24:00,42.3,40.7,29.95,ESE,119,0.0,0.0,94,0.00,,,0.00,WeatherCatV1.15B25,2013-04-05 11:24:00,
2013-04-05 07:29:00,42.3,40.7,29.95,ESE,119,0.0,0.0,94,0.00,,,0.00,WeatherCatV1.15B25,2013-04-05 11:29:00,
2013-04-05 07:34:00,42.3,40.7,29.95,ESE,119,0.0,0.0,94,0.00,,,0.00,WeatherCatV1.15B25,2013-04-05 11:34:00,
2013-04-05 07:39:00,42.5,40.9,29.95,ESE,119,0.0,0.0,94,0.00,,,0.00,WeatherCatV1.15B25,2013-04-05 11:39:00,
2013-04-05 07:44:00,42.5,40.9,29.95,ESE,119,0.0,0.0,94,0.00,,,0.00,WeatherCatV1.15B25,2013-04-05 11:44:00,
2013-04-05 07:49:00,42.5,40.9,29.95,ESE,119,0.0,0.0,94,0.00,,,0.00,WeatherCatV1.15B25,2013-04-05 11:49:00,
2013-04-05 07:54:00,42.6,41.0,29.95,ESE,119,0.0,0.0,94,0.00,,,0.00,WeatherCatV1.15B25,2013-04-05 11:54:00,
2013-04-05 07:59:00,42.6,41.0,29.95,ESE,119,0.0,0.0,94,0.00,,,0.00,WeatherCatV1.15B25,2013-04-05 11:59:00,
2013-04-05 08:04:00,42.5,40.9,29.95,ESE,119,0.0,0.0,94,0.00,,,0.00,WeatherCatV1.15B25,2013-04-05 12:04:00,
2013-04-05 08:09:00,42.5,40.9,29.95,ESE,119,0.0,0.0,94,0.00,,,0.00,WeatherCatV1.15B25,2013-04-05 12:09:00,
2013-04-05 08:14:00,42.6,41.0,29.95,ESE,119,0.0,0.0,94,0.00,,,0.00,WeatherCatV1.15B25,2013-04-05 12:14:00,
2013-04-05 08:19:00,42.8,41.2,29.95,ESE,119,0.0,0.0,94,0.00,,,0.00,WeatherCatV1.15B25,2013-04-05 12:19:00,
2013-04-05 08:24:00,42.9,41.3,29.95,ESE,119,0.0,0.0,94,0.00,,,0.00,WeatherCatV1.15B25,2013-04-05 12:24:00,
2013-04-05 08:29:00,43.1,41.5,29.96,ESE,119,0.0,0.0,94,0.00,,,0.00,WeatherCatV1.15B25,2013-04-05 12:29:00,
2013-04-05 08:34:00,43.1,41.5,29.96,ESE,119,0.0,0.0,94,0.00,,,0.00,WeatherCatV1.15B25,2013-04-05 12:34:00,
2013-04-05 08:39:00,43.2,41.6,29.96,ESE,119,0.0,0.0,94,0.00,,,0.00,WeatherCatV1.15B25,2013-04-05 12:39:00,
2013-04-05 08:44:00,43.3,41.7,29.95,ESE,119,0.0,0.0,94,0.00,,,0.00,WeatherCatV1.15B25,2013-04-05 12:44:00,
2013-04-05 08:49:00,43.3,41.4,29.95,ESE,119,0.0,0.0,93,0.00,,,0.00,WeatherCatV1.15B25,2013-04-05 12:49:00,
2013-04-05 08:54:00,43.3,41.4,29.95,North,11,0.0,5.0,93,0.00,,,0.00,WeatherCatV1.15B25,2013-04-05 12:54:00,
2013-04-05 08:59:00,43.3,41.4,29.96,NNE,13,0.0,0.0,93,0.00,,,0.00,WeatherCatV1.15B25,2013-04-05 12:59:00,
2013-04-05 09:04:00,43.3,41.4,29.96,North,8,0.0,0.0,93,0.00,,,0.00,WeatherCatV1.15B25,2013-04-05 13:04:00,
2013-04-05 09:09:00,44.5,42.3,29.96,North,6,1.0,1.0,92,0.00,,,0.00,WeatherCatV1.15B25,2013-04-05 13:09:00,
2013-04-05 09:14:00,45.5,43.3,29.96,North,354,0.0,5.0,92,0.00,,,0.00,WeatherCatV1.15B25,2013-04-05 13:14:00,
2013-04-05 09:19:00,45.5,42.7,29.96,North,356,1.0,3.0,90,0.00,,,0.00,WeatherCatV1.15B25,2013-04-05 13:19:00,
2013-04-05 09:24:00,45.5,41.9,29.96,North,356,0.0,0.0,87,0.00,,,0.00,WeatherCatV1.15B25,2013-04-05 13:24:00,
2013-04-05 09:29:00,45.5,41.6,29.96,SSE,155,5.0,6.0,86,0.00,,,0.00,WeatherCatV1.15B25,2013-04-05 13:29:00,
2013-04-05 09:34:00,45.5,41.6,29.96,SSE,155,0.0,1.0,86,0.00,,,0.00,WeatherCatV1.15B25,2013-04-05 13:34:00,
2013-04-05 09:39:00,45.5,41.6,29.96,SSE,155,0.0,0.0,86,0.00,,,0.00,WeatherCatV1.15B25,2013-04-05 13:39:00,
2013-04-05 09:44:00,47.3,43.3,29.97,SSE,155,0.0,3.0,86,0.00,,,0.00,WeatherCatV1.15B25,2013-04-05 13:44:00,
2013-04-05 09:49:00,47.4,43.4,29.97,SSE,155,0.0,5.0,86,0.00,,,0.00,WeatherCatV1.15B25,2013-04-05 13:49:00,
2013-04-05 09:54:00,47.7,43.7,29.97,SSE,157,2.0,2.0,86,0.00,,,0.00,WeatherCatV1.15B25,2013-04-05 13:54:00,
2013-04-05 09:59:00,48.2,43.3,29.96,SSE,157,1.0,3.0,83,0.00,,,0.00,WeatherCatV1.15B25,2013-04-05 13:59:00,
2013-04-05 10:04:00,48.6,43.4,29.96,SE,127,3.0,3.0,82,0.00,,,0.00,WeatherCatV1.15B25,2013-04-05 14:04:00,
2013-04-05 10:09:00,48.6,43.4,29.96,ESE,103,6.0,6.0,82,0.00,,,0.00,WeatherCatV1.15B25,2013-04-05 14:09:00,
2013-04-05 10:14:00,48.8,43.2,29.97,ESE,103,3.0,3.0,81,0.00,,,0.00,WeatherCatV1.15B25,2013-04-05 14:14:00,
2013-04-05 10:19:00,48.9,43.0,29.97,East,93,2.0,2.0,80,0.00,,,0.00,WeatherCatV1.15B25,2013-04-05 14:19:00,
2013-04-05 10:24:00,49.1,43.2,29.97,East,93,1.0,3.0,80,0.00,,,0.00,WeatherCatV1.15B25,2013-04-05 14:24:00,
2013-04-05 10:29:00,49.4,43.5,29.97,East,86,5.0,5.0,80,0.00,,,0.00,WeatherCatV1.15B25,2013-04-05 14:29:00,
2013-04-05 10:34:00,49.5,42.9,29.97,East,86,0.0,1.0,78,0.00,,,0.00,WeatherCatV1.15B25,2013-04-05 14:34:00,
2013-04-05 10:39:00,49.8,43.2,29.97,East,97,2.0,3.0,78,0.00,,,0.00,WeatherCatV1.15B25,2013-04-05 14:39:00,
2013-04-05 10:44:00,49.9,43.3,29.98,NE,49,0.0,1.0,78,0.00,,,0.00,WeatherCatV1.15B25,2013-04-05 14:44:00,
2013-04-05 10:49:00,50.4,43.8,29.98,ENE,59,3.0,4.0,78,0.00,,,0.00,WeatherCatV1.15B25,2013-04-05 14:49:00,
2013-04-05 10:54:00,50.5,43.9,29.98,ENE,72,1.0,3.0,78,0.00,,,0.00,WeatherCatV1.15B25,2013-04-05 14:54:00,
2013-04-05 10:59:00,50.7,44.1,29.98,ENE,76,0.0,0.0,78,0.00,,,0.00,WeatherCatV1.15B25,2013-04-05 14:59:00,
2013-04-05 11:04:00,51.0,44.4,29.98,ENE,61,0.0,0.0,78,0.00,,,0.00,WeatherCatV1.15B25,2013-04-05 15:04:00,
2013-04-05 11:09:00,51.3,44.7,29.98,SE,140,0.0,0.0,78,0.00,,,0.00,WeatherCatV1.15B25,2013-04-05 15:09:00,
2013-04-05 11:14:00,51.3,44.7,29.99,SE,131,8.0,8.0,78,0.00,,,0.00,WeatherCatV1.15B25,2013-04-05 15:14:00,
2013-04-05 11:19:00,51.0,44.4,29.99,ESE,117,8.0,11.0,78,0.00,,,0.00,WeatherCatV1.15B25,2013-04-05 15:19:00,
2013-04-05 11:24:00,50.7,44.1,29.99,SSE,150,12.0,12.0,78,0.00,,,0.00,WeatherCatV1.15B25,2013-04-05 15:24:00,
2013-04-05 11:29:00,50.5,43.9,29.99,ESE,120,3.0,8.0,78,0.00,,,0.00,WeatherCatV1.15B25,2013-04-05 15:29:00,
2013-04-05 11:34:00,50.5,43.9,29.99,SSE,162,5.0,12.0,78,0.00,,,0.00,WeatherCatV1.15B25,2013-04-05 15:34:00,
2013-04-05 11:39:00,50.4,43.8,29.99,ESE,123,8.0,12.0,78,0.00,,,0.00,WeatherCatV1.15B25,2013-04-05 15:39:00,
2013-04-05 11:44:00,50.4,43.8,29.99,ESE,107,7.0,7.0,78,0.00,,,0.00,WeatherCatV1.15B25,2013-04-05 15:44:00,
2013-04-05 11:49:00,50.5,43.9,29.99,ESE,119,8.0,8.0,78,0.00,,,0.00,WeatherCatV1.15B25,2013-04-05 15:49:00,
2013-04-05 11:54:00,50.4,43.8,29.99,East,95,3.0,7.0,78,0.00,,,0.00,WeatherCatV1.15B25,2013-04-05 15:54:00,
2013-04-05 11:59:00,50.5,43.9,30.00,ESE,110,6.0,8.0,78,0.00,,,0.00,WeatherCatV1.15B25,2013-04-05 15:59:00,
2013-04-05 12:04:00,50.7,44.1,30.00,ESE,107,2.0,6.0,78,0.00,,,0.00,WeatherCatV1.15B25,2013-04-05 16:04:00,
2013-04-05 12:09:00,50.8,43.9,30.00,ESE,109,2.0,7.0,77,0.00,,,0.00,WeatherCatV1.15B25,2013-04-05 16:09:00,
2013-04-05 12:14:00,51.0,44.0,30.00,ESE,109,2.0,4.0,77,0.00,,,0.00,WeatherCatV1.15B25,2013-04-05 16:14:00,
2013-04-05 12:19:00,51.4,44.4,30.00,ESE,107,6.0,7.0,77,0.00,,,0.00,WeatherCatV1.15B25,2013-04-05 16:19:00,
2013-04-05 12:24:00,51.6,44.3,30.00,ESE,107,3.0,3.0,76,0.00,,,0.00,WeatherCatV1.15B25,2013-04-05 16:24:00,
2013-04-05 12:29:00,51.9,44.6,30.00,ESE,106,2.0,4.0,76,0.00,,,0.00,WeatherCatV1.15B25,2013-04-05 16:29:00,
2013-04-05 12:34:00,52.0,44.3,30.00,ESE,106,0.0,0.0,75,0.00,,,0.00,WeatherCatV1.15B25,2013-04-05 16:34:00,
2013-04-05 12:39:00,52.3,45.0,30.00,ESE,107,4.0,5.0,76,0.00,,,0.00,WeatherCatV1.15B25,2013-04-05 16:39:00,
2013-04-05 12:44:00,52.6,44.6,29.99,ESE,112,1.0,5.0,74,0.00,,,0.00,WeatherCatV1.15B25,2013-04-05 16:44:00,
2013-04-05 12:49:00,52.8,44.4,29.99,ESE,112,0.0,0.0,73,0.00,,,0.00,WeatherCatV1.15B25,2013-04-05 16:49:00,
2013-04-05 12:54:00,53.2,44.8,29.99,ESE,112,0.0,0.0,73,0.00,,,0.00,WeatherCatV1.15B25,2013-04-05 16:54:00,
2013-04-05 12:59:00,53.6,44.8,29.99,ESE,112,0.0,0.0,72,0.00,,,0.00,WeatherCatV1.15B25,2013-04-05 16:59:00,
2013-04-05 13:04:00,54.1,44.5,29.99,ESE,112,0.0,0.0,70,0.00,,,0.00,WeatherCatV1.15B25,2013-04-05 17:04:00,
2013-04-05 13:09:00,54.5,44.5,29.99,ESE,112,0.0,0.0,69,0.00,,,0.00,WeatherCatV1.15B25,2013-04-05 17:09:00,
2013-04-05 13:14:00,54.8,43.7,29.98,SE,124,3.0,5.0,66,0.00,,,0.00,WeatherCatV1.15B25,2013-04-05 17:14:00,
2013-04-05 13:19:00,54.8,44.1,29.98,SE,128,3.0,3.0,67,0.00,,,0.00,WeatherCatV1.15B25,2013-04-05 17:19:00,
2013-04-05 13:24:00,55.1,44.3,29.98,SE,141,6.0,6.0,67,0.00,,,0.00,WeatherCatV1.15B25,2013-04-05 17:24:00,
2013-04-05 13:29:00,55.3,43.7,29.97,SSE,158,3.0,6.0,65,0.00,,,0.00,WeatherCatV1.15B25,2013-04-05 17:29:00,
2013-04-05 13:34:00,55.6,44.0,29.97,SSE,158,2.0,6.0,65,0.00,,,0.00,WeatherCatV1.15B25,2013-04-05 17:34:00,
2013-04-05 13:39:00,55.7,43.7,29.97,SSE,151,4.0,7.0,64,0.00,,,0.00,WeatherCatV1.15B25,2013-04-05 17:39:00,
2013-04-05 13:44:00,56.2,44.2,29.97,SSE,151,0.0,4.0,64,0.00,,,0.00,WeatherCatV1.15B25,2013-04-05 17:44:00,
2013-04-05 13:49:00,56.7,44.2,29.97,SE,133,4.0,6.0,63,0.00,,,0.00,WeatherCatV1.15B25,2013-04-05 17:49:00,
2013-04-05 13:54:00,57.3,44.0,29.97,SSE,148,6.0,7.0,61,0.00,,,0.00,WeatherCatV1.15B25,2013-04-05 17:54:00,
2013-04-05 13:59:00,57.6,43.8,29.97,South,179,3.0,6.0,60,0.00,,,0.00,WeatherCatV1.15B25,2013-04-05 17:59:00,
2013-04-05 14:04:00,57.8,44.0,29.97,SSE,164,0.0,1.0,60,0.00,,,0.00,WeatherCatV1.15B25,2013-04-05 18:04:00,
2013-04-05 14:09:00,57.8,43.1,29.97,SSE,155,0.0,6.0,58,0.00,,,0.00,WeatherCatV1.15B25,2013-04-05 18:09:00,
2013-04-05 14:14:00,58.0,43.8,29.96,SSE,155,2.0,7.0,59,0.00,,,0.00,WeatherCatV1.15B25,2013-04-05 18:14:00,
2013-04-05 14:19:00,58.1,43.8,29.96,SSE,148,8.0,9.0,59,0.00,,,0.00,WeatherCatV1.15B25,2013-04-05 18:19:00,
2013-04-05 14:24:00,58.1,44.3,29.96,SSE,148,7.0,8.0,60,0.00,,,0.00,WeatherCatV1.15B25,2013-04-05 18:24:00,
2013-04-05 14:29:00,58.3,43.6,29.96,South,171,0.0,0.0,58,0.00,,,0.00,WeatherCatV1.15B25,2013-04-05 18:29:00,
2013-04-05 14:34:00,58.4,43.2,29.96,South,169,5.0,7.0,57,0.00,,,0.00,WeatherCatV1.15B25,2013-04-05 18:34:00,
2013-04-05 14:39:00,58.3,43.6,29.96,SSE,160,6.0,6.0,58,0.00,,,0.00,WeatherCatV1.15B25,2013-04-05 18:39:00,
2013-04-05 14:44:00,58.3,43.6,29.95,SSE,148,7.0,8.0,58,0.00,,,0.00,WeatherCatV1.15B25,2013-04-05 18:44:00,
2013-04-05 14:49:00,58.4,43.7,29.95,SSE,147,7.0,10.0,58,0.00,,,0.00,WeatherCatV1.15B25,2013-04-05 18:49:00,
2013-04-05 14:54:00,58.4,43.2,29.95,SE,141,9.0,10.0,57,0.00,,,0.00,WeatherCatV1.15B25,2013-04-05 18:54:00,
2013-04-05 14:59:00,58.6,44.3,29.95,SSE,160,7.0,12.0,59,0.00,,,0.00,WeatherCatV1.15B25,2013-04-05 18:59:00,
2013-04-05 15:04:00,58.9,42.8,29.95,SSE,154,7.0,8.0,55,0.00,,,0.00,WeatherCatV1.15B25,2013-04-05 19:04:00,
2013-04-05 15:09:00,59.2,43.5,29.95,SSE,154,1.0,6.0,56,0.00,,,0.00,WeatherCatV1.15B25,2013-04-05 19:09:00,
2013-04-05 15:14:00,59.3,43.6,29.94,SE,138,8.0,8.0,56,0.00,,,0.00,WeatherCatV1.15B25,2013-04-05 19:14:00,
2013-04-05 15:19:00,59.3,43.6,29.94,SE,144,8.0,9.0,56,0.00,,,0.00,WeatherCatV1.15B25,2013-04-05 19:19:00,
2013-04-05 15:24:00,59.5,43.8,29.94,SE,145,7.0,8.0,56,0.00,,,0.00,WeatherCatV1.15B25,2013-04-05 19:24:00,
2013-04-05 15:29:00,59.6,43.9,29.94,SSE,150,7.0,8.0,56,0.00,,,0.00,WeatherCatV1.15B25,2013-04-05 19:29:00,
2013-04-05 15:34:00,59.8,44.1,29.94,SSE,152,7.0,8.0,56,0.00,,,0.00,WeatherCatV1.15B25,2013-04-05 19:34:00,
2013-04-05 15:39:00,59.9,44.2,29.94,SSE,148,6.0,10.0,56,0.00,,,0.00,WeatherCatV1.15B25,2013-04-05 19:39:00,
2013-04-05 15:44:00,60.1,44.3,29.93,SE,144,6.0,10.0,56,0.00,,,0.00,WeatherCatV1.15B25,2013-04-05 19:44:00,
2013-04-05 15:49:00,60.2,44.4,29.93,SE,143,7.0,10.0,56,0.00,,,0.00,WeatherCatV1.15B25,2013-04-05 19:49:00,
2013-04-05 15:54:00,60.5,42.8,29.93,SSE,151,4.0,7.0,52,0.00,,,0.00,WeatherCatV1.15B25,2013-04-05 19:54:00,
2013-04-05 15:59:00,61.0,43.2,29.93,SSE,147,5.0,7.0,52,0.00,,,0.00,WeatherCatV1.15B25,2013-04-05 19:59:00,
2013-04-05 16:04:00,61.0,43.2,29.93,SSE,150,3.0,7.0,52,0.00,,,0.00,WeatherCatV1.15B25,2013-04-05 20:04:00,
2013-04-05 16:09:00,61.2,43.4,29.93,SSE,148,8.0,8.0,52,0.00,,,0.00,WeatherCatV1.15B25,2013-04-05 20:09:00,
2013-04-05 16:14:00,61.5,43.7,29.92,SSE,154,6.0,7.0,52,0.00,,,0.00,WeatherCatV1.15B25,2013-04-05 20:14:00,
2013-04-05 16:19:00,61.6,43.8,29.92,SSE,154,6.0,7.0,52,0.00,,,0.00,WeatherCatV1.15B25,2013-04-05 20:19:00,
2013-04-05 16:24:00,62.0,44.2,29.92,SE,140,8.0,8.0,52,0.00,,,0.00,WeatherCatV1.15B25,2013-04-05 20:24:00,
2013-04-05 16:29:00,62.1,44.3,29.92,SSE,150,5.0,8.0,52,0.00,,,0.00,WeatherCatV1.15B25,2013-04-05 20:29:00,
2013-04-05 16:34:00,62.1,44.3,29.92,SSE,150,2.0,5.0,52,0.00,,,0.00,WeatherCatV1.15B25,2013-04-05 20:34:00,
2013-04-05 16:39:00,62.3,44.4,29.92,SSE,154,3.0,3.0,52,0.00,,,0.00,WeatherCatV1.15B25,2013-04-05 20:39:00,
2013-04-05 16:44:00,62.6,44.7,29.91,SE,138,7.0,7.0,52,0.00,,,0.00,WeatherCatV1.15B25,2013-04-05 20:44:00,
2013-04-05 16:49:00,63.1,45.2,29.91,North,0,0.0,2.0,52,0.00,,,0.00,WeatherCatV1.15B25,2013-04-05 20:49:00,
2013-04-05 16:54:00,63.5,42.3,29.91,SE,128,5.0,5.0,46,0.00,,,0.00,WeatherCatV1.15B25,2013-04-05 20:54:00,
2013-04-05 16:59:00,63.7,42.5,29.92,SSE,164,0.0,1.0,46,0.00,,,0.00,WeatherCatV1.15B25,2013-04-05 20:59:00,
2013-04-05 17:04:00,64.3,41.3,29.92,WSW,244,0.0,0.0,43,0.00,,,0.00,WeatherCatV1.15B25,2013-04-05 21:04:00,
2013-04-05 17:09:00,64.3,41.3,29.92,SSE,160,4.0,5.0,43,0.00,,,0.00,WeatherCatV1.15B25,2013-04-05 21:09:00,
2013-04-05 17:14:00,64.3,40.1,29.92,SSE,161,2.0,2.0,41,0.00,,,0.00,WeatherCatV1.15B25,2013-04-05 21:14:00,
2013-04-05 17:19:00,64.5,40.3,29.92,WNW,296,2.0,2.0,41,0.00,,,0.00,WeatherCatV1.15B25,2013-04-05 21:19:00,
2013-04-05 17:24:00,64.5,40.3,29.92,South,171,6.0,6.0,41,0.00,,,0.00,WeatherCatV1.15B25,2013-04-05 21:24:00,
2013-04-05 17:29:00,64.3,40.1,29.91,SSE,168,3.0,3.0,41,0.00,,,0.00,WeatherCatV1.15B25,2013-04-05 21:29:00,
2013-04-05 17:34:00,64.2,40.0,29.91,SSE,168,0.0,2.0,41,0.00,,,0.00,WeatherCatV1.15B25,2013-04-05 21:34:00,
2013-04-05 17:39:00,64.2,40.0,29.91,SSE,157,5.0,5.0,41,0.00,,,0.00,WeatherCatV1.15B25,2013-04-05 21:39:00,
2013-04-05 17:44:00,64.2,40.0,29.92,SSE,165,0.0,0.0,41,0.00,,,0.00,WeatherCatV1.15B25,2013-04-05 21:44:00,
2013-04-05 17:49:00,64.2,40.0,29.92,SSE,164,2.0,2.0,41,0.00,,,0.00,WeatherCatV1.15B25,2013-04-05 21:49:00,
2013-04-05 17:54:00,64.2,40.0,29.92,SE,143,4.0,5.0,41,0.00,,,0.00,WeatherCatV1.15B25,2013-04-05 21:54:00,
2013-04-05 17:59:00,64.2,41.2,29.92,SE,143,0.0,0.0,43,0.00,,,0.00,WeatherCatV1.15B25,2013-04-05 21:59:00,
2013-04-05 18:04:00,64.2,39.4,29.92,SE,143,0.0,0.0,40,0.00,,,0.00,WeatherCatV1.15B25,2013-04-05 22:04:00,
2013-04-05 18:09:00,64.2,37.4,29.92,SE,143,0.0,0.0,37,0.00,,,0.00,WeatherCatV1.15B25,2013-04-05 22:09:00,
2013-04-05 18:14:00,64.2,38.7,29.92,SSE,148,0.0,0.0,39,0.00,,,0.00,WeatherCatV1.15B25,2013-04-05 22:14:00,
2013-04-05 18:19:00,64.2,38.1,29.92,NNW,343,0.0,6.0,38,0.00,,,0.00,WeatherCatV1.15B25,2013-04-05 22:19:00,
2013-04-05 18:24:00,64.2,34.5,29.92,NW,316,3.0,7.0,33,0.00,,,0.00,WeatherCatV1.15B25,2013-04-05 22:24:00,
2013-04-05 18:29:00,64.2,34.5,29.93,NW,315,4.0,7.0,33,0.00,,,0.00,WeatherCatV1.15B25,2013-04-05 22:29:00,
2013-04-05 18:34:00,65.2,34.6,29.93,NNW,343,3.0,3.0,32,0.00,,,0.00,WeatherCatV1.15B25,2013-04-05 22:34:00,
2013-04-05 18:39:00,65.2,35.4,29.93,NNW,339,0.0,0.0,33,0.00,,,0.00,WeatherCatV1.15B25,2013-04-05 22:39:00,
2013-04-05 18:44:00,64.8,35.0,29.93,North,359,0.0,1.0,33,0.00,,,0.00,WeatherCatV1.15B25,2013-04-05 22:44:00,
2013-04-05 18:49:00,64.7,34.9,29.93,WNW,289,0.0,5.0,33,0.00,,,0.00,WeatherCatV1.15B25,2013-04-05 22:49:00,
2013-04-05 18:54:00,64.7,33.4,29.93,NNW,343,0.0,2.0,31,0.00,,,0.00,WeatherCatV1.15B25,2013-04-05 22:54:00,
2013-04-05 18:59:00,64.7,34.2,29.94,NW,320,0.0,6.0,32,0.00,,,0.00,WeatherCatV1.15B25,2013-04-05 22:59:00,
2013-04-05 19:04:00,64.7,33.4,29.94,NW,308,0.0,1.0,31,0.00,,,0.00,WeatherCatV1.15B25,2013-04-05 23:04:00,
2013-04-05 19:09:00,64.7,32.5,29.94,NW,318,2.0,5.0,30,0.00,,,0.00,WeatherCatV1.15B25,2013-04-05 23:09:00,
2013-04-05 19:14:00,64.7,34.2,29.94,NW,305,6.0,6.0,32,0.00,,,0.00,WeatherCatV1.15B25,2013-04-05 23:14:00,
2013-04-05 19:19:00,64.7,33.4,29.94,North,352,0.0,0.0,31,0.00,,,0.00,WeatherCatV1.15B25,2013-04-05 23:19:00,
2013-04-05 19:24:00,64.7,34.9,29.94,WNW,299,5.0,5.0,33,0.00,,,0.00,WeatherCatV1.15B25,2013-04-05 23:24:00,
2013-04-05 19:29:00,64.7,34.2,29.95,NNW,328,2.0,5.0,32,0.00,,,0.00,WeatherCatV1.15B25,2013-04-05 23:29:00,
2013-04-05 19:34:00,64.7,34.9,29.95,NW,318,0.0,5.0,33,0.00,,,0.00,WeatherCatV1.15B25,2013-04-05 23:34:00,
2013-04-05 19:39:00,64.7,36.4,29.95,North,0,0.0,0.0,35,0.00,,,0.00,WeatherCatV1.15B25,2013-04-05 23:39:00,
2013-04-05 19:44:00,64.7,36.4,29.96,North,7,0.0,2.0,35,0.00,,,0.00,WeatherCatV1.15B25,2013-04-05 23:44:00,
2013-04-05 19:49:00,64.7,36.4,29.96,NNW,346,0.0,3.0,35,0.00,,,0.00,WeatherCatV1.15B25,2013-04-05 23:49:00,
2013-04-05 19:54:00,64.7,37.1,29.96,NW,322,0.0,2.0,36,0.00,,,0.00,WeatherCatV1.15B25,2013-04-05 23:54:00,
2013-04-05 19:59:00,64.7,37.8,29.97,NW,325,0.0,0.0,37,0.00,,,0.00,WeatherCatV1.15B25,2013-04-05 23:59:00,
2013-04-05 20:04:00,64.7,39.2,29.97,NW,320,0.0,0.0,39,0.00,,,0.00,WeatherCatV1.15B25,2013-04-06 00:04:00,
2013-04-05 20:09:00,64.7,38.5,29.97,West,267,0.0,0.0,38,0.00,,,0.00,WeatherCatV1.15B25,2013-04-06 00:09:00,
2013-04-05 20:14:00,64.7,39.8,29.97,West,272,0.0,0.0,40,0.00,,,0.00,WeatherCatV1.15B25,2013-04-06 00:14:00,
2013-04-05 20:19:00,64.7,40.5,29.97,West,272,0.0,0.0,41,0.00,,,0.00,WeatherCatV1.15B25,2013-04-06 00:19:00,
2013-04-05 20:24:00,64.7,40.5,29.97,West,272,0.0,0.0,41,0.00,,,0.00,WeatherCatV1.15B25,2013-04-06 00:24:00,
2013-04-05 20:29:00,64.7,41.1,29.98,ENE,65,0.0,0.0,42,0.00,,,0.00,WeatherCatV1.15B25,2013-04-06 00:29:00,
2013-04-05 20:34:00,64.7,41.7,29.98,ENE,65,0.0,0.0,43,0.00,,,0.00,WeatherCatV1.15B25,2013-04-06 00:34:00,
2013-04-05 20:39:00,64.7,41.7,29.98,South,172,0.0,0.0,43,0.00,,,0.00,WeatherCatV1.15B25,2013-04-06 00:39:00,
2013-04-05 20:44:00,64.7,43.4,29.99,South,175,0.0,0.0,46,0.00,,,0.00,WeatherCatV1.15B25,2013-04-06 00:44:00,
2013-04-05 20:49:00,64.7,43.4,29.99,South,175,0.0,0.0,46,0.00,,,0.00,WeatherCatV1.15B25,2013-04-06 00:49:00,
2013-04-05 20:54:00,64.7,42.9,29.99,South,175,0.0,0.0,45,0.00,,,0.00,WeatherCatV1.15B25,2013-04-06 00:54:00,
2013-04-05 20:59:00,64.7,43.4,29.99,South,175,0.0,0.0,46,0.00,,,0.00,WeatherCatV1.15B25,2013-04-06 00:59:00,
2013-04-05 21:04:00,64.7,44.0,29.99,South,175,0.0,0.0,47,0.00,,,0.00,WeatherCatV1.15B25,2013-04-06 01:04:00,
2013-04-05 21:09:00,64.7,44.0,29.99,WNW,284,0.0,1.0,47,0.00,,,0.00,WeatherCatV1.15B25,2013-04-06 01:09:00,
2013-04-05 21:14:00,56.3,36.3,30.00,WNW,284,0.0,0.0,47,0.00,,,0.00,WeatherCatV1.15B25,2013-04-06 01:14:00,
2013-04-05 21:19:00,56.3,37.4,30.00,WNW,284,0.0,0.0,49,0.00,,,0.00,WeatherCatV1.15B25,2013-04-06 01:19:00,
2013-04-05 21:24:00,56.3,36.3,30.00,WNW,285,0.0,0.0,47,0.00,,,0.00,WeatherCatV1.15B25,2013-04-06 01:24:00,
2013-04-05 21:29:00,56.3,36.3,30.00,NW,305,0.0,1.0,47,0.00,,,0.00,WeatherCatV1.15B25,2013-04-06 01:29:00,
2013-04-05 21:34:00,56.3,36.3,30.00,NW,311,0.0,2.0,47,0.00,,,0.00,WeatherCatV1.15B25,2013-04-06 01:34:00,
2013-04-05 21:39:00,56.3,35.8,30.00,NW,311,0.0,0.0,46,0.00,,,0.00,WeatherCatV1.15B25,2013-04-06 01:39:00,
2013-04-05 21:44:00,56.3,37.9,30.01,North,354,3.0,3.0,50,0.00,,,0.00,WeatherCatV1.15B25,2013-04-06 01:44:00,
2013-04-05 21:49:00,56.3,36.3,30.01,North,354,1.0,3.0,47,0.00,,,0.00,WeatherCatV1.15B25,2013-04-06 01:49:00,
2013-04-05 21:54:00,56.3,36.3,30.01,North,356,0.0,0.0,47,0.00,,,0.00,WeatherCatV1.15B25,2013-04-06 01:54:00,
2013-04-05 21:59:00,56.3,35.8,30.02,North,354,0.0,0.0,46,0.00,,,0.00,WeatherCatV1.15B25,2013-04-06 01:59:00,
2013-04-05 22:04:00,56.3,36.3,30.02,North,354,0.0,0.0,47,0.00,,,0.00,WeatherCatV1.15B25,2013-04-06 02:04:00,
2013-04-05 22:09:00,56.3,35.8,30.02,North,350,0.0,0.0,46,0.00,,,0.00,WeatherCatV1.15B25,2013-04-06 02:09:00,
2013-04-05 22:14:00,56.3,36.9,30.02,North,350,0.0,0.0,48,0.00,,,0.00,WeatherCatV1.15B25,2013-04-06 02:14:00,
2013-04-05 22:19:00,56.3,38.4,30.02,North,349,0.0,0.0,51,0.00,,,0.00,WeatherCatV1.15B25,2013-04-06 02:19:00,
2013-04-05 22:24:00,56.3,38.9,30.02,North,350,0.0,0.0,52,0.00,,,0.00,WeatherCatV1.15B25,2013-04-06 02:24:00,
2013-04-05 22:29:00,56.3,39.9,30.03,North,350,0.0,0.0,54,0.00,,,0.00,WeatherCatV1.15B25,2013-04-06 02:29:00,
2013-04-05 22:34:00,56.3,39.9,30.03,North,350,0.0,0.0,54,0.00,,,0.00,WeatherCatV1.15B25,2013-04-06 02:34:00,
2013-04-05 22:39:00,56.3,43.0,30.03,North,350,0.0,0.0,61,0.00,,,0.00,WeatherCatV1.15B25,2013-04-06 02:39:00,
2013-04-05 22:44:00,56.3,43.4,30.02,North,349,0.0,0.0,62,0.00,,,0.00,WeatherCatV1.15B25,2013-04-06 02:44:00,
2013-04-05 22:49:00,56.3,43.0,30.02,North,349,0.0,0.0,61,0.00,,,0.00,WeatherCatV1.15B25,2013-04-06 02:49:00,
2013-04-05 22:54:00,56.3,42.2,30.02,North,349,0.0,0.0,59,0.00,,,0.00,WeatherCatV1.15B25,2013-04-06 02:54:00,
2013-04-05 22:59:00,56.3,39.9,30.03,North,349,0.0,0.0,54,0.00,,,0.00,WeatherCatV1.15B25,2013-04-06 02:59:00,
2013-04-05 23:04:00,52.9,36.7,30.03,North,349,0.0,0.0,54,0.00,,,0.00,WeatherCatV1.15B25,2013-04-06 03:04:00,
2013-04-05 23:09:00,53.1,36.4,30.03,North,349,0.0,0.0,53,0.00,,,0.00,WeatherCatV1.15B25,2013-04-06 03:09:00,
2013-04-05 23:14:00,53.1,36.4,30.04,North,349,0.0,0.0,53,0.00,,,0.00,WeatherCatV1.15B25,2013-04-06 03:14:00,
2013-04-05 23:19:00,52.3,37.1,30.04,North,349,0.0,0.0,56,0.00,,,0.00,WeatherCatV1.15B25,2013-04-06 03:19:00,
2013-04-05 23:24:00,52.2,37.0,30.04,North,349,0.0,0.0,56,0.00,,,0.00,WeatherCatV1.15B25,2013-04-06 03:24:00,
2013-04-05 23:29:00,52.2,37.0,30.04,North,349,0.0,0.0,56,0.00,,,0.00,WeatherCatV1.15B25,2013-04-06 03:29:00,
2013-04-05 23:34:00,52.2,36.1,30.04,NNW,347,0.0,0.0,54,0.00,,,0.00,WeatherCatV1.15B25,2013-04-06 03:34:00,
2013-04-05 23:39:00,52.2,34.6,30.04,NNW,347,0.0,0.0,51,0.00,,,0.00,WeatherCatV1.15B25,2013-04-06 03:39:00,
2013-04-05 23:44:00,52.2,34.1,30.05,North,349,0.0,0.0,50,0.00,,,0.00,WeatherCatV1.15B25,2013-04-06 03:44:00,
2013-04-05 23:49:00,52.2,33.6,30.05,NNW,342,0.0,0.0,49,0.00,,,0.00,WeatherCatV1.15B25,2013-04-06 03:49:00,
2013-04-05 23:54:00,53.6,34.4,30.05,NNW,343,0.0,0.0,48,0.00,,,0.00,WeatherCatV1.15B25,2013-04-06 03:54:00,
2013-04-05 23:59:00,53.6,35.4,30.05,NNW,343,0.0,0.0,50,0.00,,,0.00,WeatherCatV1.15B25,2013-04-06 03:59:00,